sensor_id;sensor_type;location;lat;lon;timestamp;temperature;humidity
20985;DHT22;10651;47.552;7.606;2023-01-05T11:29:19;13.70;99.90
20985;DHT22;10651;47.552;7.606;2023-01-05T11:37:03;13.60;99.90
20985;DHT22;10651;47.552;7.606;2023-01-05T11:42:33;13.50;99.90
20985;DHT22;10651;47.552;7.606;2023-01-05T11:45:19;13.50;99.90
20985;DHT22;10651;47.552;7.606;2023-01-05T11:47:49;13.40;99.90
20985;DHT22;10651;47.552;7.606;2023-01-05T11:50:23;13.40;99.90
20985;DHT22;10651;47.552;7.606;2023-01-05T11:52:54;13.40;99.90
20985;DHT22;10651;47.552;7.606;2023-01-05T11:55:39;13.40;99.90
20985;DHT22;10651;47.552;7.606;2023-01-05T12:14:35;13.50;99.90
20985;DHT22;10651;47.552;7.606;2023-01-05T12:17:12;13.50;99.90
20985;DHT22;10651;47.552;7.606;2023-01-05T12:22:45;13.50;99.90
20985;DHT22;10651;47.552;7.606;2023-01-05T12:36:03;13.70;99.90
20985;DHT22;10651;47.552;7.606;2023-01-05T12:44:36;13.90;99.90
20985;DHT22;10651;47.552;7.606;2023-01-05T12:49:59;13.90;99.90
20985;DHT22;10651;47.552;7.606;2023-01-05T12:52:32;13.90;99.90
20985;DHT22;10651;47.552;7.606;2023-01-05T12:57:33;13.90;99.90
20985;DHT22;10651;47.552;7.606;2023-01-05T13:00:32;13.90;99.90
20985;DHT22;10651;47.552;7.606;2023-01-05T13:03:14;13.90;99.90
20985;DHT22;10651;47.552;7.606;2023-01-05T13:08:43;13.80;99.90
20985;DHT22;10651;47.552;7.606;2023-01-05T13:13:54;13.80;99.90
20985;DHT22;10651;47.552;7.606;2023-01-05T13:16:29;13.80;99.90
20985;DHT22;10651;47.552;7.606;2023-01-05T13:19:43;13.80;99.90
20985;DHT22;10651;47.552;7.606;2023-01-05T13:21:51;13.80;99.90
20985;DHT22;10651;47.552;7.606;2023-01-05T13:24:39;13.80;99.90
20985;DHT22;10651;47.552;7.606;2023-01-05T13:27:12;13.80;99.90
20985;DHT22;10651;47.552;7.606;2023-01-05T13:29:45;13.90;99.90
20985;DHT22;10651;47.552;7.606;2023-01-05T13:32:41;14.00;99.90
20985;DHT22;10651;47.552;7.606;2023-01-05T13:46:18;14.30;99.90
20985;DHT22;10651;47.552;7.606;2023-01-05T13:51:52;14.10;99.90
20985;DHT22;10651;47.552;7.606;2023-01-05T13:54:32;14.10;99.90
20985;DHT22;10651;47.552;7.606;2023-01-05T13:56:59;14.10;99.90
20985;DHT22;10651;47.552;7.606;2023-01-05T13:59:31;14.00;99.90
20985;DHT22;10651;47.552;7.606;2023-01-05T14:01:59;14.00;99.90
20985;DHT22;10651;47.552;7.606;2023-01-05T14:04:32;14.00;99.90
20985;DHT22;10651;47.552;7.606;2023-01-05T14:07:10;14.00;99.90
20985;DHT22;10651;47.552;7.606;2023-01-05T14:09:45;14.00;99.90
20985;DHT22;10651;47.552;7.606;2023-01-05T14:17:58;13.80;99.90
20985;DHT22;10651;47.552;7.606;2023-01-05T14:20:44;13.80;99.90
20985;DHT22;10651;47.552;7.606;2023-01-05T14:26:05;13.80;99.90
20985;DHT22;10651;47.552;7.606;2023-01-05T14:33:58;13.60;99.90
20985;DHT22;10651;47.552;7.606;2023-01-05T14:36:28;13.60;99.90
20985;DHT22;10651;47.552;7.606;2023-01-05T14:38:55;13.50;99.90
20985;DHT22;10651;47.552;7.606;2023-01-05T14:41:23;13.60;99.90
20985;DHT22;10651;47.552;7.606;2023-01-05T14:44:13;13.60;99.90
20985;DHT22;10651;47.552;7.606;2023-01-05T14:46:52;13.50;99.90
20985;DHT22;10651;47.552;7.606;2023-01-05T14:49:33;13.60;99.90
20985;DHT22;10651;47.552;7.606;2023-01-05T14:52:01;13.60;99.90
20985;DHT22;10651;47.552;7.606;2023-01-05T14:57:35;13.50;99.90
20985;DHT22;10651;47.552;7.606;2023-01-05T15:05:57;13.50;99.90
20985;DHT22;10651;47.552;7.606;2023-01-05T15:11:35;13.40;99.90
20985;DHT22;10651;47.552;7.606;2023-01-05T15:19:53;13.40;99.90
20985;DHT22;10651;47.552;7.606;2023-01-05T15:22:46;13.40;99.90
20985;DHT22;10651;47.552;7.606;2023-01-05T15:28:01;13.40;99.90
20985;DHT22;10651;47.552;7.606;2023-01-05T15:35:54;13.30;99.90
20985;DHT22;10651;47.552;7.606;2023-01-05T15:38:27;13.30;99.90
20985;DHT22;10651;47.552;7.606;2023-01-05T15:41:05;13.30;99.90
20985;DHT22;10651;47.552;7.606;2023-01-05T15:43:32;13.30;99.90
20985;DHT22;10651;47.552;7.606;2023-01-05T15:45:59;13.20;99.90
20985;DHT22;10651;47.552;7.606;2023-01-05T15:48:33;13.20;99.90
20985;DHT22;10651;47.552;7.606;2023-01-05T15:51:00;13.20;99.90
20985;DHT22;10651;47.552;7.606;2023-01-05T15:53:34;13.20;99.90
20985;DHT22;10651;47.552;7.606;2023-01-05T15:56:03;13.10;99.90
20985;DHT22;10651;47.552;7.606;2023-01-05T15:58:32;13.10;99.90
20985;DHT22;10651;47.552;7.606;2023-01-05T16:01:06;13.10;99.90
20985;DHT22;10651;47.552;7.606;2023-01-05T16:03:36;13.20;99.90
20985;DHT22;10651;47.552;7.606;2023-01-05T16:06:23;13.10;99.90
20985;DHT22;10651;47.552;7.606;2023-01-05T16:08:53;13.10;99.90
20985;DHT22;10651;47.552;7.606;2023-01-05T16:11:30;13.00;99.90
20985;DHT22;10651;47.552;7.606;2023-01-05T16:14:05;13.00;99.90
20985;DHT22;10651;47.552;7.606;2023-01-05T16:16:37;13.10;99.90
20985;DHT22;10651;47.552;7.606;2023-01-05T16:19:12;13.10;99.90
20985;DHT22;10651;47.552;7.606;2023-01-05T16:21:47;13.10;99.90
20985;DHT22;10651;47.552;7.606;2023-01-05T16:24:42;13.10;99.90
20985;DHT22;10651;47.552;7.606;2023-01-05T16:27:12;13.10;99.90
20985;DHT22;10651;47.552;7.606;2023-01-05T16:29:41;13.10;99.90
20985;DHT22;10651;47.552;7.606;2023-01-05T16:32:34;13.10;99.90
20985;DHT22;10651;47.552;7.606;2023-01-05T16:35:28;13.10;99.90
20985;DHT22;10651;47.552;7.606;2023-01-05T16:41:39;13.10;99.90
20985;DHT22;10651;47.552;7.606;2023-01-05T16:44:10;13.10;99.90
20985;DHT22;10651;47.552;7.606;2023-01-05T16:46:39;13.10;99.90
20985;DHT22;10651;47.552;7.606;2023-01-05T16:49:25;13.10;99.90
20985;DHT22;10651;47.552;7.606;2023-01-05T16:54:26;13.20;99.90
20985;DHT22;10651;47.552;7.606;2023-01-05T16:57:02;13.10;99.90
20985;DHT22;10651;47.552;7.606;2023-01-05T17:02:33;13.10;99.90
20985;DHT22;10651;47.552;7.606;2023-01-05T17:05:07;13.10;99.90
20985;DHT22;10651;47.552;7.606;2023-01-05T17:07:45;13.10;99.90
20985;DHT22;10651;47.552;7.606;2023-01-05T17:10:21;13.10;99.90
20985;DHT22;10651;47.552;7.606;2023-01-05T17:15:28;13.20;99.90
20985;DHT22;10651;47.552;7.606;2023-01-05T17:17:54;13.20;99.90
20985;DHT22;10651;47.552;7.606;2023-01-05T17:20:26;13.20;99.90
20985;DHT22;10651;47.552;7.606;2023-01-05T17:22:53;13.20;99.90
20985;DHT22;10651;47.552;7.606;2023-01-05T17:41:24;12.70;99.90
20985;DHT22;10651;47.552;7.606;2023-01-05T17:43:50;12.70;99.90
20985;DHT22;10651;47.552;7.606;2023-01-05T18:07:30;12.70;99.90
20985;DHT22;10651;47.552;7.606;2023-01-05T18:11:05;12.60;99.90
20985;DHT22;10651;47.552;7.606;2023-01-05T19:26:06;11.90;99.90
20985;DHT22;10651;47.552;7.606;2023-01-05T19:28:36;11.80;99.90
20985;DHT22;10651;47.552;7.606;2023-01-05T19:41:35;11.60;99.90
20985;DHT22;10651;47.552;7.606;2023-01-05T19:45:10;11.70;99.90
20985;DHT22;10651;47.552;7.606;2023-01-05T19:47:36;11.80;99.90
20985;DHT22;10651;47.552;7.606;2023-01-05T19:50:26;11.80;99.90
20985;DHT22;10651;47.552;7.606;2023-01-05T19:53:21;11.70;99.90
20985;DHT22;10651;47.552;7.606;2023-01-05T19:55:47;11.80;99.90
20985;DHT22;10651;47.552;7.606;2023-01-05T19:58:13;11.70;99.90
20985;DHT22;10651;47.552;7.606;2023-01-05T20:00:38;11.70;99.90
20985;DHT22;10651;47.552;7.606;2023-01-05T20:03:07;11.60;99.90
20985;DHT22;10651;47.552;7.606;2023-01-05T20:05:33;11.60;99.90
20985;DHT22;10651;47.552;7.606;2023-01-05T20:08:02;11.60;99.90
20985;DHT22;10651;47.552;7.606;2023-01-05T20:10:28;11.70;99.90
20985;DHT22;10651;47.552;7.606;2023-01-05T20:12:53;11.70;99.90
20985;DHT22;10651;47.552;7.606;2023-01-05T20:15:19;11.70;99.90
20985;DHT22;10651;47.552;7.606;2023-01-05T20:17:45;11.70;99.90
20985;DHT22;10651;47.552;7.606;2023-01-05T20:20:12;11.80;99.90
20985;DHT22;10651;47.552;7.606;2023-01-05T20:23:05;11.70;99.90
20985;DHT22;10651;47.552;7.606;2023-01-05T20:25:33;11.70;99.90
20985;DHT22;10651;47.552;7.606;2023-01-05T20:28:38;11.70;99.90
20985;DHT22;10651;47.552;7.606;2023-01-05T20:31:16;11.60;99.90
20985;DHT22;10651;47.552;7.606;2023-01-05T20:33:47;11.60;99.90
20985;DHT22;10651;47.552;7.606;2023-01-05T20:36:21;11.60;99.90
20985;DHT22;10651;47.552;7.606;2023-01-05T20:38:48;11.50;99.90
20985;DHT22;10651;47.552;7.606;2023-01-05T20:41:15;11.50;99.90
20985;DHT22;10651;47.552;7.606;2023-01-05T20:43:43;11.50;99.90
20985;DHT22;10651;47.552;7.606;2023-01-05T20:46:31;11.40;99.90
20985;DHT22;10651;47.552;7.606;2023-01-05T20:48:57;11.40;99.90
20985;DHT22;10651;47.552;7.606;2023-01-05T20:54:29;11.40;99.90
20985;DHT22;10651;47.552;7.606;2023-01-05T22:01:57;10.40;99.90
20985;DHT22;10651;47.552;7.606;2023-01-05T22:12:40;10.40;99.90
20985;DHT22;10651;47.552;7.606;2023-01-05T22:30:28;10.20;99.90
20985;DHT22;10651;47.552;7.606;2023-01-05T22:43:50;10.10;99.90
20985;DHT22;10651;47.552;7.606;2023-01-05T22:53:48;10.00;99.90
